sensor_id;sensor_type;location;lat;lon;timestamp;temperature;humidity
15959;DHT22;8078;47.822;9.402;2023-01-24T00:00:05;-0.90;99.90
15959;DHT22;8078;47.822;9.402;2023-01-24T00:02:31;-0.90;99.90
15959;DHT22;8078;47.822;9.402;2023-01-24T00:04:57;-0.90;99.90
15959;DHT22;8078;47.822;9.402;2023-01-24T00:07:22;-0.90;99.90
15959;DHT22;8078;47.822;9.402;2023-01-24T00:09:48;-0.90;99.90
15959;DHT22;8078;47.822;9.402;2023-01-24T00:12:13;-0.90;99.90
15959;DHT22;8078;47.822;9.402;2023-01-24T00:14:39;-0.90;99.90
15959;DHT22;8078;47.822;9.402;2023-01-24T00:17:05;-0.90;99.90
15959;DHT22;8078;47.822;9.402;2023-01-24T00:19:33;-0.90;99.90
15959;DHT22;8078;47.822;9.402;2023-01-24T00:21:58;-0.90;99.90
15959;DHT22;8078;47.822;9.402;2023-01-24T00:24:24;-0.90;99.90
15959;DHT22;8078;47.822;9.402;2023-01-24T00:26:51;-0.90;99.90
15959;DHT22;8078;47.822;9.402;2023-01-24T00:29:17;-0.80;99.90
15959;DHT22;8078;47.822;9.402;2023-01-24T00:31:42;-0.90;99.90
15959;DHT22;8078;47.822;9.402;2023-01-24T00:34:08;-0.90;99.90
15959;DHT22;8078;47.822;9.402;2023-01-24T00:36:33;-0.90;99.90
15959;DHT22;8078;47.822;9.402;2023-01-24T00:38:59;-0.90;99.90
15959;DHT22;8078;47.822;9.402;2023-01-24T00:41:24;-0.90;99.90
15959;DHT22;8078;47.822;9.402;2023-01-24T00:43:50;-0.90;99.90
15959;DHT22;8078;47.822;9.402;2023-01-24T00:46:15;-0.90;99.90
15959;DHT22;8078;47.822;9.402;2023-01-24T00:48:41;-0.90;99.90
15959;DHT22;8078;47.822;9.402;2023-01-24T00:51:06;-0.90;99.90
15959;DHT22;8078;47.822;9.402;2023-01-24T00:53:32;-0.90;99.90
15959;DHT22;8078;47.822;9.402;2023-01-24T00:55:57;-0.90;99.90
15959;DHT22;8078;47.822;9.402;2023-01-24T00:58:23;-0.90;99.90
15959;DHT22;8078;47.822;9.402;2023-01-24T01:00:49;-0.90;99.90
15959;DHT22;8078;47.822;9.402;2023-01-24T01:03:19;-0.90;99.90
15959;DHT22;8078;47.822;9.402;2023-01-24T01:05:45;-0.80;99.90
15959;DHT22;8078;47.822;9.402;2023-01-24T01:08:11;-0.80;99.90
15959;DHT22;8078;47.822;9.402;2023-01-24T01:10:37;-0.90;99.90
15959;DHT22;8078;47.822;9.402;2023-01-24T01:13:03;-0.90;99.90
15959;DHT22;8078;47.822;9.402;2023-01-24T01:15:29;-0.80;99.90
15959;DHT22;8078;47.822;9.402;2023-01-24T01:17:56;-0.80;99.90
15959;DHT22;8078;47.822;9.402;2023-01-24T01:20:22;-0.80;99.90
15959;DHT22;8078;47.822;9.402;2023-01-24T01:22:47;-0.80;99.90
15959;DHT22;8078;47.822;9.402;2023-01-24T01:25:13;-0.80;99.90
15959;DHT22;8078;47.822;9.402;2023-01-24T01:27:38;-0.80;99.90
15959;DHT22;8078;47.822;9.402;2023-01-24T01:30:05;-0.90;99.90
15959;DHT22;8078;47.822;9.402;2023-01-24T01:32:30;-0.90;99.90
15959;DHT22;8078;47.822;9.402;2023-01-24T01:34:56;-0.90;99.90
15959;DHT22;8078;47.822;9.402;2023-01-24T01:37:21;-0.90;99.90
15959;DHT22;8078;47.822;9.402;2023-01-24T01:39:47;-0.90;99.90
15959;DHT22;8078;47.822;9.402;2023-01-24T01:42:13;-0.90;99.90
15959;DHT22;8078;47.822;9.402;2023-01-24T01:44:40;-0.80;99.90
15959;DHT22;8078;47.822;9.402;2023-01-24T01:47:28;-0.90;99.90
15959;DHT22;8078;47.822;9.402;2023-01-24T01:52:32;-0.90;99.90
15959;DHT22;8078;47.822;9.402;2023-01-24T01:55:03;-0.90;99.90
15959;DHT22;8078;47.822;9.402;2023-01-24T01:57:32;-0.90;99.90
15959;DHT22;8078;47.822;9.402;2023-01-24T02:00:05;-0.90;99.90
15959;DHT22;8078;47.822;9.402;2023-01-24T02:02:32;-0.90;99.90
15959;DHT22;8078;47.822;9.402;2023-01-24T02:05:10;-0.90;99.90
15959;DHT22;8078;47.822;9.402;2023-01-24T02:10:07;-0.90;99.90
15959;DHT22;8078;47.822;9.402;2023-01-24T02:12:38;-0.90;99.90
15959;DHT22;8078;47.822;9.402;2023-01-24T02:15:14;-0.90;99.90
15959;DHT22;8078;47.822;9.402;2023-01-24T02:17:59;-0.90;99.90
15959;DHT22;8078;47.822;9.402;2023-01-24T02:20:48;-0.90;99.90
15959;DHT22;8078;47.822;9.402;2023-01-24T02:23:20;-0.90;99.90
15959;DHT22;8078;47.822;9.402;2023-01-24T02:28:31;-0.90;99.90
15959;DHT22;8078;47.822;9.402;2023-01-24T02:30:57;-0.90;99.90
15959;DHT22;8078;47.822;9.402;2023-01-24T02:33:23;-0.90;99.90
15959;DHT22;8078;47.822;9.402;2023-01-24T02:35:49;-0.90;99.90
15959;DHT22;8078;47.822;9.402;2023-01-24T02:38:20;-0.90;99.90
15959;DHT22;8078;47.822;9.402;2023-01-24T02:40:51;-0.90;99.90
15959;DHT22;8078;47.822;9.402;2023-01-24T02:43:19;-0.90;99.90
15959;DHT22;8078;47.822;9.402;2023-01-24T02:45:46;-0.90;99.90
15959;DHT22;8078;47.822;9.402;2023-01-24T02:48:11;-0.90;99.90
15959;DHT22;8078;47.822;9.402;2023-01-24T02:50:40;-0.90;99.90
15959;DHT22;8078;47.822;9.402;2023-01-24T02:53:24;-0.90;99.90
15959;DHT22;8078;47.822;9.402;2023-01-24T02:56:13;-0.90;99.90
15959;DHT22;8078;47.822;9.402;2023-01-24T02:58:57;-0.90;99.90
15959;DHT22;8078;47.822;9.402;2023-01-24T03:01:23;-0.90;99.90
15959;DHT22;8078;47.822;9.402;2023-01-24T03:03:49;-0.90;99.90
15959;DHT22;8078;47.822;9.402;2023-01-24T03:06:16;-0.90;99.90
15959;DHT22;8078;47.822;9.402;2023-01-24T03:08:42;-0.90;99.90
15959;DHT22;8078;47.822;9.402;2023-01-24T03:11:09;-0.90;99.90
15959;DHT22;8078;47.822;9.402;2023-01-24T03:13:35;-0.80;99.90
15959;DHT22;8078;47.822;9.402;2023-01-24T03:16:21;-0.90;99.90
15959;DHT22;8078;47.822;9.402;2023-01-24T03:19:05;-0.90;99.90
15959;DHT22;8078;47.822;9.402;2023-01-24T03:21:50;-0.90;99.90
15959;DHT22;8078;47.822;9.402;2023-01-24T03:24:34;-0.90;99.90
15959;DHT22;8078;47.822;9.402;2023-01-24T03:27:19;-0.90;99.90
15959;DHT22;8078;47.822;9.402;2023-01-24T03:30:04;-0.90;99.90
15959;DHT22;8078;47.822;9.402;2023-01-24T03:32:49;-0.90;99.90
15959;DHT22;8078;47.822;9.402;2023-01-24T03:35:34;-0.90;99.90
15959;DHT22;8078;47.822;9.402;2023-01-24T03:37:59;-0.90;99.90
15959;DHT22;8078;47.822;9.402;2023-01-24T03:40:44;-0.90;99.90
15959;DHT22;8078;47.822;9.402;2023-01-24T03:43:09;-0.90;99.90
15959;DHT22;8078;47.822;9.402;2023-01-24T03:45:37;-0.90;99.90
15959;DHT22;8078;47.822;9.402;2023-01-24T03:48:08;-0.90;99.90
15959;DHT22;8078;47.822;9.402;2023-01-24T03:50:42;-0.90;99.90
15959;DHT22;8078;47.822;9.402;2023-01-24T03:53:28;-0.90;99.90
15959;DHT22;8078;47.822;9.402;2023-01-24T03:55:56;-0.90;99.90
15959;DHT22;8078;47.822;9.402;2023-01-24T03:58:22;-0.90;99.90
15959;DHT22;8078;47.822;9.402;2023-01-24T04:00:49;-0.90;99.90
15959;DHT22;8078;47.822;9.402;2023-01-24T04:03:14;-0.90;99.90
15959;DHT22;8078;47.822;9.402;2023-01-24T04:05:40;-0.90;99.90
15959;DHT22;8078;47.822;9.402;2023-01-24T04:08:05;-0.80;99.90
15959;DHT22;8078;47.822;9.402;2023-01-24T04:10:31;-0.90;99.90
15959;DHT22;8078;47.822;9.402;2023-01-24T04:12:58;-0.90;99.90
15959;DHT22;8078;47.822;9.402;2023-01-24T04:15:26;-0.90;99.90
15959;DHT22;8078;47.822;9.402;2023-01-24T04:17:55;-0.80;99.90
15959;DHT22;8078;47.822;9.402;2023-01-24T04:20:22;-0.90;99.90
15959;DHT22;8078;47.822;9.402;2023-01-24T04:22:47;-0.90;99.90
15959;DHT22;8078;47.822;9.402;2023-01-24T04:25:13;-0.90;99.90
15959;DHT22;8078;47.822;9.402;2023-01-24T04:27:38;-0.90;99.90
15959;DHT22;8078;47.822;9.402;2023-01-24T04:30:09;-0.90;99.90
15959;DHT22;8078;47.822;9.402;2023-01-24T04:32:36;-0.90;99.90
15959;DHT22;8078;47.822;9.402;2023-01-24T04:35:01;-0.90;99.90
15959;DHT22;8078;47.822;9.402;2023-01-24T04:37:29;-0.90;99.90
15959;DHT22;8078;47.822;9.402;2023-01-24T04:39:54;-0.90;99.90
15959;DHT22;8078;47.822;9.402;2023-01-24T04:42:20;-0.90;99.90
15959;DHT22;8078;47.822;9.402;2023-01-24T04:44:45;-0.90;99.90
15959;DHT22;8078;47.822;9.402;2023-01-24T04:47:11;-0.90;99.90
15959;DHT22;8078;47.822;9.402;2023-01-24T04:49:36;-0.90;99.90
15959;DHT22;8078;47.822;9.402;2023-01-24T04:52:02;-0.90;99.90
15959;DHT22;8078;47.822;9.402;2023-01-24T04:54:27;-0.90;99.90
15959;DHT22;8078;47.822;9.402;2023-01-24T04:56:53;-0.90;99.90
15959;DHT22;8078;47.822;9.402;2023-01-24T04:59:19;-0.90;99.90
15959;DHT22;8078;47.822;9.402;2023-01-24T05:01:44;-0.90;99.90
15959;DHT22;8078;47.822;9.402;2023-01-24T05:04:10;-0.90;99.90
15959;DHT22;8078;47.822;9.402;2023-01-24T05:06:35;-0.90;99.90
15959;DHT22;8078;47.822;9.402;2023-01-24T05:09:01;-0.90;99.90
15959;DHT22;8078;47.822;9.402;2023-01-24T05:11:27;-0.90;99.90
15959;DHT22;8078;47.822;9.402;2023-01-24T05:13:53;-0.90;99.90
15959;DHT22;8078;47.822;9.402;2023-01-24T05:16:19;-0.90;99.90
15959;DHT22;8078;47.822;9.402;2023-01-24T05:18:44;-0.90;99.90
15959;DHT22;8078;47.822;9.402;2023-01-24T05:21:12;-1.00;99.90
15959;DHT22;8078;47.822;9.402;2023-01-24T05:23:39;-0.90;99.90
15959;DHT22;8078;47.822;9.402;2023-01-24T05:26:04;-0.90;99.90
15959;DHT22;8078;47.822;9.402;2023-01-24T05:28:30;-0.90;99.90
15959;DHT22;8078;47.822;9.402;2023-01-24T05:31:00;-1.00;99.90
15959;DHT22;8078;47.822;9.402;2023-01-24T05:33:26;-0.90;99.90
15959;DHT22;8078;47.822;9.402;2023-01-24T05:35:59;-0.90;99.90
15959;DHT22;8078;47.822;9.402;2023-01-24T05:38:25;-0.90;99.90
15959;DHT22;8078;47.822;9.402;2023-01-24T05:40:51;-0.90;99.90
15959;DHT22;8078;47.822;9.402;2023-01-24T05:43:17;-0.90;99.90
15959;DHT22;8078;47.822;9.402;2023-01-24T05:45:42;-0.90;99.90
15959;DHT22;8078;47.822;9.402;2023-01-24T05:48:08;-0.90;99.90
15959;DHT22;8078;47.822;9.402;2023-01-24T05:50:35;-0.90;99.90
15959;DHT22;8078;47.822;9.402;2023-01-24T05:53:02;-0.90;99.90
15959;DHT22;8078;47.822;9.402;2023-01-24T05:55:28;-0.90;99.90
15959;DHT22;8078;47.822;9.402;2023-01-24T05:57:53;-0.90;99.90
15959;DHT22;8078;47.822;9.402;2023-01-24T06:00:19;-0.90;99.90
15959;DHT22;8078;47.822;9.402;2023-01-24T06:02:44;-0.90;99.90
15959;DHT22;8078;47.822;9.402;2023-01-24T06:05:10;-0.90;99.90
15959;DHT22;8078;47.822;9.402;2023-01-24T06:07:36;-0.90;99.90
15959;DHT22;8078;47.822;9.402;2023-01-24T06:10:01;-0.90;99.90
15959;DHT22;8078;47.822;9.402;2023-01-24T06:12:27;-0.90;99.90
15959;DHT22;8078;47.822;9.402;2023-01-24T06:14:52;-0.90;99.90
15959;DHT22;8078;47.822;9.402;2023-01-24T06:17:18;-0.90;99.90
15959;DHT22;8078;47.822;9.402;2023-01-24T06:19:44;-0.90;99.90
15959;DHT22;8078;47.822;9.402;2023-01-24T06:22:54;-0.90;99.90
15959;DHT22;8078;47.822;9.402;2023-01-24T06:25:24;-0.90;99.90
15959;DHT22;8078;47.822;9.402;2023-01-24T06:27:50;-0.90;99.90
15959;DHT22;8078;47.822;9.402;2023-01-24T06:30:17;-0.90;99.90
15959;DHT22;8078;47.822;9.402;2023-01-24T06:33:40;-0.90;99.90
15959;DHT22;8078;47.822;9.402;2023-01-24T06:36:26;-0.90;99.90
15959;DHT22;8078;47.822;9.402;2023-01-24T06:38:54;-0.90;99.90
15959;DHT22;8078;47.822;9.402;2023-01-24T06:41:20;-0.90;99.90
15959;DHT22;8078;47.822;9.402;2023-01-24T06:43:46;-0.90;99.90
15959;DHT22;8078;47.822;9.402;2023-01-24T06:46:12;-0.90;99.90
15959;DHT22;8078;47.822;9.402;2023-01-24T06:48:38;-0.90;99.90
15959;DHT22;8078;47.822;9.402;2023-01-24T06:51:04;-0.90;99.90
15959;DHT22;8078;47.822;9.402;2023-01-24T06:53:32;-0.90;99.90
15959;DHT22;8078;47.822;9.402;2023-01-24T06:55:57;-0.90;99.90
15959;DHT22;8078;47.822;9.402;2023-01-24T06:58:23;-0.90;99.90
15959;DHT22;8078;47.822;9.402;2023-01-24T07:00:48;-0.90;99.90
15959;DHT22;8078;47.822;9.402;2023-01-24T07:03:14;-0.90;99.90
15959;DHT22;8078;47.822;9.402;2023-01-24T07:05:39;-0.90;99.90
15959;DHT22;8078;47.822;9.402;2023-01-24T07:08:06;-0.90;99.90
15959;DHT22;8078;47.822;9.402;2023-01-24T07:10:32;-0.90;99.90
15959;DHT22;8078;47.822;9.402;2023-01-24T07:12:57;-0.90;99.90
15959;DHT22;8078;47.822;9.402;2023-01-24T07:15:24;-0.90;99.90
15959;DHT22;8078;47.822;9.402;2023-01-24T07:17:49;-0.90;99.90
15959;DHT22;8078;47.822;9.402;2023-01-24T07:20:15;-0.90;99.90
15959;DHT22;8078;47.822;9.402;2023-01-24T07:22:42;-0.80;99.90
15959;DHT22;8078;47.822;9.402;2023-01-24T07:25:16;-0.80;99.90
15959;DHT22;8078;47.822;9.402;2023-01-24T07:27:43;-0.80;99.90
15959;DHT22;8078;47.822;9.402;2023-01-24T07:30:10;-0.80;99.90
15959;DHT22;8078;47.822;9.402;2023-01-24T07:32:36;-0.80;99.90
15959;DHT22;8078;47.822;9.402;2023-01-24T07:35:01;-0.80;99.90
15959;DHT22;8078;47.822;9.402;2023-01-24T07:37:27;-0.80;99.90
15959;DHT22;8078;47.822;9.402;2023-01-24T07:39:52;-0.80;99.90
15959;DHT22;8078;47.822;9.402;2023-01-24T07:42:18;-0.80;99.90
15959;DHT22;8078;47.822;9.402;2023-01-24T07:44:43;-0.80;99.90
15959;DHT22;8078;47.822;9.402;2023-01-24T07:47:09;-0.80;99.90
15959;DHT22;8078;47.822;9.402;2023-01-24T07:49:34;-0.70;99.90
15959;DHT22;8078;47.822;9.402;2023-01-24T07:52:00;-0.70;99.90
15959;DHT22;8078;47.822;9.402;2023-01-24T07:54:25;-0.70;99.90
15959;DHT22;8078;47.822;9.402;2023-01-24T07:56:51;-0.70;99.90
15959;DHT22;8078;47.822;9.402;2023-01-24T07:59:16;-0.70;99.90
15959;DHT22;8078;47.822;9.402;2023-01-24T08:01:42;-0.70;99.90
15959;DHT22;8078;47.822;9.402;2023-01-24T08:04:08;-0.70;99.90
15959;DHT22;8078;47.822;9.402;2023-01-24T08:06:34;-0.60;99.90
15959;DHT22;8078;47.822;9.402;2023-01-24T08:09:00;-0.60;99.90
15959;DHT22;8078;47.822;9.402;2023-01-24T08:11:25;-0.60;99.90
15959;DHT22;8078;47.822;9.402;2023-01-24T08:13:51;-0.60;99.90
15959;DHT22;8078;47.822;9.402;2023-01-24T08:16:17;-0.60;99.90
15959;DHT22;8078;47.822;9.402;2023-01-24T08:18:43;-0.60;99.90
15959;DHT22;8078;47.822;9.402;2023-01-24T08:21:09;-0.50;99.90
15959;DHT22;8078;47.822;9.402;2023-01-24T08:23:35;-0.50;99.90
15959;DHT22;8078;47.822;9.402;2023-01-24T08:26:02;-0.60;99.90
15959;DHT22;8078;47.822;9.402;2023-01-24T08:28:28;-0.50;99.90
15959;DHT22;8078;47.822;9.402;2023-01-24T08:30:57;-0.50;99.90
15959;DHT22;8078;47.822;9.402;2023-01-24T08:33:22;-0.50;99.90
15959;DHT22;8078;47.822;9.402;2023-01-24T08:35:48;-0.50;99.90
15959;DHT22;8078;47.822;9.402;2023-01-24T08:38:15;-0.40;99.90
15959;DHT22;8078;47.822;9.402;2023-01-24T08:40:41;-0.40;99.90
15959;DHT22;8078;47.822;9.402;2023-01-24T08:43:06;-0.40;99.90
15959;DHT22;8078;47.822;9.402;2023-01-24T08:45:32;-0.30;99.90
15959;DHT22;8078;47.822;9.402;2023-01-24T08:47:58;-0.30;99.90
15959;DHT22;8078;47.822;9.402;2023-01-24T08:50:23;-0.20;99.90
15959;DHT22;8078;47.822;9.402;2023-01-24T08:52:49;-0.30;99.90
15959;DHT22;8078;47.822;9.402;2023-01-24T08:55:18;-0.20;99.90
15959;DHT22;8078;47.822;9.402;2023-01-24T08:57:44;-0.30;99.90
15959;DHT22;8078;47.822;9.402;2023-01-24T09:00:10;-0.30;99.90
15959;DHT22;8078;47.822;9.402;2023-01-24T09:02:36;-0.20;99.90
15959;DHT22;8078;47.822;9.402;2023-01-24T09:05:06;-0.20;99.90
15959;DHT22;8078;47.822;9.402;2023-01-24T09:07:33;-0.10;99.90
15959;DHT22;8078;47.822;9.402;2023-01-24T09:10:01;-0.20;99.90
15959;DHT22;8078;47.822;9.402;2023-01-24T09:12:27;-0.10;99.90
15959;DHT22;8078;47.822;9.402;2023-01-24T09:14:52;-0.10;99.90
15959;DHT22;8078;47.822;9.402;2023-01-24T09:17:18;-0.10;99.90
15959;DHT22;8078;47.822;9.402;2023-01-24T09:19:44;-0.10;99.90
15959;DHT22;8078;47.822;9.402;2023-01-24T09:22:09;-0.10;99.90
15959;DHT22;8078;47.822;9.402;2023-01-24T09:24:37;0.00;99.90
15959;DHT22;8078;47.822;9.402;2023-01-24T09:27:02;-0.10;99.90
15959;DHT22;8078;47.822;9.402;2023-01-24T09:29:28;-0.10;99.90
15959;DHT22;8078;47.822;9.402;2023-01-24T09:31:53;-0.10;99.90
15959;DHT22;8078;47.822;9.402;2023-01-24T09:34:20;0.00;99.90
15959;DHT22;8078;47.822;9.402;2023-01-24T09:36:47;-0.10;99.90
15959;DHT22;8078;47.822;9.402;2023-01-24T09:39:14;-0.10;99.90
15959;DHT22;8078;47.822;9.402;2023-01-24T09:41:59;0.00;99.90
15959;DHT22;8078;47.822;9.402;2023-01-24T09:47:26;0.00;99.90
15959;DHT22;8078;47.822;9.402;2023-01-24T09:50:02;0.10;99.90
15959;DHT22;8078;47.822;9.402;2023-01-24T09:52:41;0.10;99.90
15959;DHT22;8078;47.822;9.402;2023-01-24T09:55:25;0.10;99.90
15959;DHT22;8078;47.822;9.402;2023-01-24T10:01:08;0.30;99.90
15959;DHT22;8078;47.822;9.402;2023-01-24T10:03:35;0.30;99.90
15959;DHT22;8078;47.822;9.402;2023-01-24T10:06:17;0.30;99.90
15959;DHT22;8078;47.822;9.402;2023-01-24T10:14:37;0.50;99.90
15959;DHT22;8078;47.822;9.402;2023-01-24T10:17:37;0.50;99.90
15959;DHT22;8078;47.822;9.402;2023-01-24T10:25:48;0.60;99.90
15959;DHT22;8078;47.822;9.402;2023-01-24T10:28:23;0.60;99.90
15959;DHT22;8078;47.822;9.402;2023-01-24T10:30:58;0.70;99.90
15959;DHT22;8078;47.822;9.402;2023-01-24T10:33:30;0.70;99.90
15959;DHT22;8078;47.822;9.402;2023-01-24T10:36:13;0.60;99.90
15959;DHT22;8078;47.822;9.402;2023-01-24T10:38:42;0.60;99.90
15959;DHT22;8078;47.822;9.402;2023-01-24T10:41:23;0.60;99.90
15959;DHT22;8078;47.822;9.402;2023-01-24T10:44:02;0.60;99.90
15959;DHT22;8078;47.822;9.402;2023-01-24T10:46:41;0.60;99.90
15959;DHT22;8078;47.822;9.402;2023-01-24T10:49:13;0.70;99.90
15959;DHT22;8078;47.822;9.402;2023-01-24T10:51:39;0.70;99.90
15959;DHT22;8078;47.822;9.402;2023-01-24T10:54:17;0.80;99.90
15959;DHT22;8078;47.822;9.402;2023-01-24T10:56:45;0.80;99.90
15959;DHT22;8078;47.822;9.402;2023-01-24T10:59:12;0.70;99.90
15959;DHT22;8078;47.822;9.402;2023-01-24T11:01:44;0.80;99.90
15959;DHT22;8078;47.822;9.402;2023-01-24T11:04:19;0.80;99.90
15959;DHT22;8078;47.822;9.402;2023-01-24T11:06:47;0.90;99.90
15959;DHT22;8078;47.822;9.402;2023-01-24T11:09:16;0.90;99.90
15959;DHT22;8078;47.822;9.402;2023-01-24T11:11:50;0.80;99.90
15959;DHT22;8078;47.822;9.402;2023-01-24T11:14:19;0.90;99.90
15959;DHT22;8078;47.822;9.402;2023-01-24T11:16:54;0.80;99.90
15959;DHT22;8078;47.822;9.402;2023-01-24T11:21:54;0.80;99.90
15959;DHT22;8078;47.822;9.402;2023-01-24T11:24:20;0.80;99.90
15959;DHT22;8078;47.822;9.402;2023-01-24T11:27:14;0.80;99.90
15959;DHT22;8078;47.822;9.402;2023-01-24T11:29:40;0.80;99.90
15959;DHT22;8078;47.822;9.402;2023-01-24T11:35:08;0.90;99.90
15959;DHT22;8078;47.822;9.402;2023-01-24T11:48:56;0.70;99.90
15959;DHT22;8078;47.822;9.402;2023-01-24T11:54:15;0.60;99.90
15959;DHT22;8078;47.822;9.402;2023-01-24T12:00:02;0.60;99.90
15959;DHT22;8078;47.822;9.402;2023-01-24T12:05:50;0.80;99.90
15959;DHT22;8078;47.822;9.402;2023-01-24T12:14:33;0.90;99.90
15959;DHT22;8078;47.822;9.402;2023-01-24T12:17:28;0.90;99.90
15959;DHT22;8078;47.822;9.402;2023-01-24T12:20:13;0.90;99.90
15959;DHT22;8078;47.822;9.402;2023-01-24T12:22:42;0.80;99.90
15959;DHT22;8078;47.822;9.402;2023-01-24T12:25:20;0.70;99.90
15959;DHT22;8078;47.822;9.402;2023-01-24T12:27:49;0.70;99.90
15959;DHT22;8078;47.822;9.402;2023-01-24T12:30:29;0.70;99.90
15959;DHT22;8078;47.822;9.402;2023-01-24T12:33:14;0.80;99.90
15959;DHT22;8078;47.822;9.402;2023-01-24T12:35:50;0.70;99.90
15959;DHT22;8078;47.822;9.402;2023-01-24T12:38:29;0.70;99.90
15959;DHT22;8078;47.822;9.402;2023-01-24T12:41:07;0.60;99.90
15959;DHT22;8078;47.822;9.402;2023-01-24T12:49:36;0.80;99.90
15959;DHT22;8078;47.822;9.402;2023-01-24T13:00:22;0.70;99.90
15959;DHT22;8078;47.822;9.402;2023-01-24T13:03:22;0.70;99.90
15959;DHT22;8078;47.822;9.402;2023-01-24T13:08:58;0.70;99.90
15959;DHT22;8078;47.822;9.402;2023-01-24T13:11:27;0.70;99.90
15959;DHT22;8078;47.822;9.402;2023-01-24T13:13:59;0.60;99.90
15959;DHT22;8078;47.822;9.402;2023-01-24T13:28:35;0.60;99.90
15959;DHT22;8078;47.822;9.402;2023-01-24T13:31:14;0.50;99.90
15959;DHT22;8078;47.822;9.402;2023-01-24T13:33:52;0.50;99.90
15959;DHT22;8078;47.822;9.402;2023-01-24T13:36:22;0.50;99.90
15959;DHT22;8078;47.822;9.402;2023-01-24T13:38:50;0.50;99.90
15959;DHT22;8078;47.822;9.402;2023-01-24T13:41:38;0.60;99.90
15959;DHT22;8078;47.822;9.402;2023-01-24T13:52:02;0.60;99.90
15959;DHT22;8078;47.822;9.402;2023-01-24T13:57:21;0.60;99.90
15959;DHT22;8078;47.822;9.402;2023-01-24T14:00:18;0.60;99.90
15959;DHT22;8078;47.822;9.402;2023-01-24T14:07:57;0.50;99.90
15959;DHT22;8078;47.822;9.402;2023-01-24T14:10:32;0.60;99.90
15959;DHT22;8078;47.822;9.402;2023-01-24T14:12:59;0.50;99.90
15959;DHT22;8078;47.822;9.402;2023-01-24T14:15:36;0.60;99.90
15959;DHT22;8078;47.822;9.402;2023-01-24T14:18:02;0.50;99.90
15959;DHT22;8078;47.822;9.402;2023-01-24T14:20:42;0.40;99.90
15959;DHT22;8078;47.822;9.402;2023-01-24T14:23:21;0.40;99.90
15959;DHT22;8078;47.822;9.402;2023-01-24T14:25:54;0.40;99.90
15959;DHT22;8078;47.822;9.402;2023-01-24T14:28:22;0.40;99.90
15959;DHT22;8078;47.822;9.402;2023-01-24T14:30:54;0.30;99.90
15959;DHT22;8078;47.822;9.402;2023-01-24T14:33:31;0.30;99.90
15959;DHT22;8078;47.822;9.402;2023-01-24T14:36:19;0.30;99.90
15959;DHT22;8078;47.822;9.402;2023-01-24T14:38:45;0.20;99.90
15959;DHT22;8078;47.822;9.402;2023-01-24T14:41:20;0.10;99.90
15959;DHT22;8078;47.822;9.402;2023-01-24T14:43:46;0.20;99.90
15959;DHT22;8078;47.822;9.402;2023-01-24T14:46:17;0.10;99.90
15959;DHT22;8078;47.822;9.402;2023-01-24T14:48:45;0.10;99.90
15959;DHT22;8078;47.822;9.402;2023-01-24T14:51:17;0.10;99.90
15959;DHT22;8078;47.822;9.402;2023-01-24T14:53:49;0.10;99.90
15959;DHT22;8078;47.822;9.402;2023-01-24T14:56:15;0.00;99.90
15959;DHT22;8078;47.822;9.402;2023-01-24T14:58:41;0.00;99.90
15959;DHT22;8078;47.822;9.402;2023-01-24T15:01:28;0.00;99.90
15959;DHT22;8078;47.822;9.402;2023-01-24T15:03:54;0.00;99.90
15959;DHT22;8078;47.822;9.402;2023-01-24T15:06:23;0.00;99.90
15959;DHT22;8078;47.822;9.402;2023-01-24T15:08:58;0.00;99.90
15959;DHT22;8078;47.822;9.402;2023-01-24T15:11:35;-0.10;99.90
15959;DHT22;8078;47.822;9.402;2023-01-24T15:14:06;-0.10;99.90
15959;DHT22;8078;47.822;9.402;2023-01-24T15:16:50;-0.10;99.90
15959;DHT22;8078;47.822;9.402;2023-01-24T15:19:22;-0.10;99.90
15959;DHT22;8078;47.822;9.402;2023-01-24T15:21:50;-0.20;99.90
15959;DHT22;8078;47.822;9.402;2023-01-24T15:24:24;-0.20;99.90
15959;DHT22;8078;47.822;9.402;2023-01-24T15:26:51;-0.20;99.90
15959;DHT22;8078;47.822;9.402;2023-01-24T15:32:01;-0.20;99.90
15959;DHT22;8078;47.822;9.402;2023-01-24T15:34:27;-0.20;99.90
15959;DHT22;8078;47.822;9.402;2023-01-24T15:37:00;-0.30;99.90
15959;DHT22;8078;47.822;9.402;2023-01-24T15:39:26;-0.30;99.90
15959;DHT22;8078;47.822;9.402;2023-01-24T15:41:53;-0.30;99.90
15959;DHT22;8078;47.822;9.402;2023-01-24T15:44:57;-0.30;99.90
15959;DHT22;8078;47.822;9.402;2023-01-24T15:47:24;-0.30;99.90
15959;DHT22;8078;47.822;9.402;2023-01-24T15:50:17;-0.30;99.90
15959;DHT22;8078;47.822;9.402;2023-01-24T15:55:37;-0.30;99.90
15959;DHT22;8078;47.822;9.402;2023-01-24T15:58:03;-0.40;99.90
15959;DHT22;8078;47.822;9.402;2023-01-24T16:00:28;-0.40;99.90
15959;DHT22;8078;47.822;9.402;2023-01-24T16:02:54;-0.40;99.90
15959;DHT22;8078;47.822;9.402;2023-01-24T16:05:20;-0.40;99.90
15959;DHT22;8078;47.822;9.402;2023-01-24T16:07:47;-0.40;99.90
15959;DHT22;8078;47.822;9.402;2023-01-24T16:10:14;-0.40;99.90
15959;DHT22;8078;47.822;9.402;2023-01-24T16:12:40;-0.40;99.90
15959;DHT22;8078;47.822;9.402;2023-01-24T16:15:08;-0.40;99.90
15959;DHT22;8078;47.822;9.402;2023-01-24T16:17:39;-0.40;99.90
15959;DHT22;8078;47.822;9.402;2023-01-24T16:20:20;-0.40;99.90
15959;DHT22;8078;47.822;9.402;2023-01-24T16:22:46;-0.40;99.90
15959;DHT22;8078;47.822;9.402;2023-01-24T16:25:13;-0.40;99.90
15959;DHT22;8078;47.822;9.402;2023-01-24T16:27:39;-0.40;99.90
15959;DHT22;8078;47.822;9.402;2023-01-24T16:30:09;-0.40;99.90
15959;DHT22;8078;47.822;9.402;2023-01-24T16:32:36;-0.40;99.90
15959;DHT22;8078;47.822;9.402;2023-01-24T16:35:02;-0.40;99.90
15959;DHT22;8078;47.822;9.402;2023-01-24T16:37:27;-0.40;99.90
15959;DHT22;8078;47.822;9.402;2023-01-24T16:39:53;-0.40;99.90
15959;DHT22;8078;47.822;9.402;2023-01-24T16:42:19;-0.40;99.90
15959;DHT22;8078;47.822;9.402;2023-01-24T16:44:56;-0.40;99.90
15959;DHT22;8078;47.822;9.402;2023-01-24T16:47:22;-0.40;99.90
15959;DHT22;8078;47.822;9.402;2023-01-24T16:49:52;-0.40;99.90
15959;DHT22;8078;47.822;9.402;2023-01-24T16:52:18;-0.40;99.90
15959;DHT22;8078;47.822;9.402;2023-01-24T16:54:44;-0.40;99.90
15959;DHT22;8078;47.822;9.402;2023-01-24T16:57:09;-0.40;99.90
15959;DHT22;8078;47.822;9.402;2023-01-24T16:59:35;-0.40;99.90
15959;DHT22;8078;47.822;9.402;2023-01-24T17:02:00;-0.40;99.90
15959;DHT22;8078;47.822;9.402;2023-01-24T17:04:26;-0.40;99.90
15959;DHT22;8078;47.822;9.402;2023-01-24T17:06:52;-0.40;99.90
15959;DHT22;8078;47.822;9.402;2023-01-24T17:09:17;-0.40;99.90
15959;DHT22;8078;47.822;9.402;2023-01-24T17:11:43;-0.40;99.90
15959;DHT22;8078;47.822;9.402;2023-01-24T17:14:08;-0.50;99.90
15959;DHT22;8078;47.822;9.402;2023-01-24T17:16:34;-0.40;99.90
15959;DHT22;8078;47.822;9.402;2023-01-24T17:19:00;-0.40;99.90
15959;DHT22;8078;47.822;9.402;2023-01-24T17:21:26;-0.40;99.90
15959;DHT22;8078;47.822;9.402;2023-01-24T17:23:52;-0.40;99.90
15959;DHT22;8078;47.822;9.402;2023-01-24T17:26:18;-0.40;99.90
15959;DHT22;8078;47.822;9.402;2023-01-24T17:28:44;-0.50;99.90
15959;DHT22;8078;47.822;9.402;2023-01-24T17:31:12;-0.50;99.90
15959;DHT22;8078;47.822;9.402;2023-01-24T17:33:39;-0.50;99.90
15959;DHT22;8078;47.822;9.402;2023-01-24T17:36:05;-0.50;99.90
15959;DHT22;8078;47.822;9.402;2023-01-24T17:38:32;-0.40;99.90
15959;DHT22;8078;47.822;9.402;2023-01-24T17:40:57;-0.40;99.90
15959;DHT22;8078;47.822;9.402;2023-01-24T17:43:23;-0.50;99.90
15959;DHT22;8078;47.822;9.402;2023-01-24T17:45:52;-0.50;99.90
15959;DHT22;8078;47.822;9.402;2023-01-24T17:48:19;-0.50;99.90
15959;DHT22;8078;47.822;9.402;2023-01-24T17:50:45;-0.40;99.90
15959;DHT22;8078;47.822;9.402;2023-01-24T17:53:10;-0.50;99.90